Time;durP1;ratioP1;P1;durP2;ratioP2;P2;SDS_P1;SDS_P2;PMS_P1;PMS_P2;Temp;Humidity;BMP_temperature;BMP_pressure;BME280_temperature;BME280_humidity;BME280_pressure;Samples;Min_cycle;Max_cycle;Signal;HPM_P1;HPM_P2
2021/09/16 00:01:06;;;;;;;12.27;10.97;;;;;;;18.33;67.46;95141.91;5035567;28;20824;-80
2021/09/16 00:03:34;;;;;;;11.43;10.23;;;;;;;18.33;67.55;95149.88;5034974;28;20463;-80
2021/09/16 00:06:01;;;;;;;13.70;11.10;;;;;;;18.33;67.16;95155.19;5034497;28;20454;-80
2021/09/16 00:08:28;;;;;;;13.20;10.40;;;;;;;18.37;67.59;95152.03;5034909;28;20451;-80
2021/09/16 00:10:55;;;;;;;11.77;10.57;;;;;;;18.39;67.39;95146.53;5035269;28;20465;-80
2021/09/16 00:13:21;;;;;;;13.00;10.50;;;;;;;18.42;66.84;95148.84;5035219;28;20483;-80
2021/09/16 00:15:48;;;;;;;10.23;9.07;;;;;;;18.42;66.96;95144.34;5034504;28;20441;-80
2021/09/16 00:18:15;;;;;;;10.37;9.37;;;;;;;18.38;66.77;95152.84;5035396;28;20826;-80
2021/09/16 00:20:44;;;;;;;10.63;8.40;;;;;;;18.37;66.54;95157.34;5034555;28;20444;-80
2021/09/16 00:23:11;;;;;;;11.00;9.90;;;;;;;18.33;66.54;95155.19;5034799;28;20450;-80
2021/09/16 00:25:37;;;;;;;11.10;9.50;;;;;;;18.23;66.83;95147.44;5034566;28;20931;-80
2021/09/16 00:28:05;;;;;;;11.23;9.77;;;;;;;18.17;67.15;95148.91;5035116;28;20450;-80
2021/09/16 00:30:32;;;;;;;10.53;9.40;;;;;;;18.14;66.96;95154.56;5034234;28;20444;-80
2021/09/16 00:32:59;;;;;;;10.57;9.40;;;;;;;18.01;67.44;95151.63;5034515;28;20506;-80
2021/09/16 00:35:26;;;;;;;14.97;8.87;;;;;;;17.95;67.61;95149.66;5034210;28;20443;-80
2021/09/16 00:37:54;;;;;;;11.30;9.60;;;;;;;17.93;68.35;95152.47;5034644;28;20448;-80
2021/09/16 00:40:21;;;;;;;10.77;9.63;;;;;;;17.89;67.73;95159.09;5034792;28;20866;-80
2021/09/16 00:42:48;;;;;;;11.80;9.63;;;;;;;17.84;68.14;95155.28;5034101;28;20458;-81
2021/09/16 00:45:15;;;;;;;11.10;8.97;;;;;;;17.85;68.04;95159.59;4999883;28;20787;-80
2021/09/16 00:47:46;;;;;;;10.53;9.50;;;;;;;17.84;68.20;95161.44;5034612;28;20492;-81
2021/09/16 00:50:13;;;;;;;12.20;9.20;;;;;;;17.81;67.96;95164.44;5034522;28;20449;-80
2021/09/16 00:52:41;;;;;;;9.70;8.57;;;;;;;17.74;68.10;95165.28;5033952;28;20858;-80
2021/09/16 00:55:11;;;;;;;10.50;9.17;;;;;;;17.72;68.09;95162.78;5034097;28;20454;-80
2021/09/16 00:57:39;;;;;;;9.60;8.70;;;;;;;17.73;68.24;95161.78;5034267;28;20490;-80
2021/09/16 01:00:09;;;;;;;11.33;9.90;;;;;;;17.71;68.42;95147.84;5034386;28;20442;-80
2021/09/16 01:02:36;;;;;;;10.00;9.00;;;;;;;17.72;68.26;95162.78;5030059;28;20446;-80
2021/09/16 01:05:04;;;;;;;12.43;8.90;;;;;;;17.73;68.28;95159.13;5034586;28;20447;-80
2021/09/16 01:07:31;;;;;;;13.30;9.60;;;;;;;17.71;67.93;95144.38;5034033;28;20446;-80
2021/09/16 01:09:59;;;;;;;10.00;9.00;;;;;;;17.63;68.03;95145.97;5034330;28;20509;-80
2021/09/16 01:12:28;;;;;;;13.70;9.47;;;;;;;17.65;67.82;95149.31;5034181;28;20448;-80
2021/09/16 01:14:55;;;;;;;11.03;9.57;;;;;;;17.59;68.61;95149.97;5033823;28;20485;-80
2021/09/16 01:17:22;;;;;;;12.20;9.97;;;;;;;17.60;67.95;95153.44;5033771;28;20469;-80
2021/09/16 01:19:49;;;;;;;10.87;9.27;;;;;;;17.57;68.39;95159.09;5034078;28;20452;-80
2021/09/16 01:22:20;;;;;;;10.70;9.30;;;;;;;17.51;68.74;95147.31;5033950;28;20443;-80
2021/09/16 01:24:49;;;;;;;9.70;8.70;;;;;;;17.45;68.89;95150.66;5033906;28;20434;-80
2021/09/16 01:27:16;;;;;;;10.77;9.77;;;;;;;17.48;69.30;95152.13;5034046;28;20431;-80
2021/09/16 01:29:44;;;;;;;10.37;9.30;;;;;;;17.43;69.36;95151.81;5033908;28;20799;-80
2021/09/16 01:32:11;;;;;;;10.83;9.83;;;;;;;17.43;68.95;95159.78;5033485;28;20444;-80
2021/09/16 01:34:38;;;;;;;13.40;10.13;;;;;;;17.45;69.18;95160.44;5033696;28;20809;-80
2021/09/16 01:37:07;;;;;;;9.90;9.00;;;;;;;17.38;69.97;95156.78;5033666;28;20750;-80
2021/09/16 01:39:36;;;;;;;11.63;9.50;;;;;;;17.32;70.07;95148.47;5033263;28;21241;-80
2021/09/16 01:42:05;;;;;;;10.90;9.67;;;;;;;17.38;69.87;95144.34;5033450;28;20462;-80
2021/09/16 01:44:33;;;;;;;18.27;9.50;;;;;;;17.42;69.91;95152.81;5033585;28;20449;-80
2021/09/16 01:47:00;;;;;;;10.07;9.17;;;;;;;17.46;69.44;95149.66;5031578;28;20524;-80
2021/09/16 01:49:27;;;;;;;10.67;9.33;;;;;;;17.44;69.01;95142.84;5033260;28;20446;-80
2021/09/16 01:51:54;;;;;;;10.97;9.87;;;;;;;17.44;69.57;95141.03;5015289;28;20437;-80
2021/09/16 01:54:21;;;;;;;10.40;9.30;;;;;;;17.40;69.57;95149.50;5033030;28;20486;-80
2021/09/16 01:56:48;;;;;;;11.10;10.00;;;;;;;17.42;69.52;95156.28;5033781;28;20477;-80
2021/09/16 01:59:16;;;;;;;12.60;9.67;;;;;;;17.39;69.10;95146.00;5033349;28;20919;-80
2021/09/16 02:01:43;;;;;;;10.03;9.03;;;;;;;17.41;69.65;95143.19;5033027;28;20438;-80
2021/09/16 02:04:10;;;;;;;10.60;9.20;;;;;;;17.45;69.74;95155.13;5033655;28;20441;-80
2021/09/16 02:06:37;;;;;;;11.97;9.87;;;;;;;17.49;69.87;95151.16;4998740;28;20444;-80
2021/09/16 02:09:04;;;;;;;11.97;10.50;;;;;;;17.43;69.93;95138.53;5033128;28;20774;-80
2021/09/16 02:11:31;;;;;;;11.23;10.00;;;;;;;17.43;69.83;95147.34;5033560;28;20448;-80
2021/09/16 02:13:58;;;;;;;13.03;9.70;;;;;;;17.45;69.71;95144.50;5032912;28;20982;-80
2021/09/16 02:16:26;;;;;;;13.60;10.27;;;;;;;17.40;69.97;95142.38;4998372;28;20449;-80
2021/09/16 02:18:53;;;;;;;11.70;10.60;;;;;;;17.39;69.95;95138.06;5032963;28;20813;-80
2021/09/16 02:21:20;;;;;;;11.63;10.33;;;;;;;17.36;69.95;95140.22;5032920;28;20453;-80
2021/09/16 02:23:47;;;;;;;15.20;10.60;;;;;;;17.33;70.56;95136.03;5032958;28;20452;-80
2021/09/16 02:26:14;;;;;;;11.40;10.17;;;;;;;17.33;70.27;95141.34;5032877;28;20463;-80
2021/09/16 02:28:41;;;;;;;14.30;11.10;;;;;;;17.30;70.60;95134.53;5036133;28;20448;-80
2021/09/16 02:31:08;;;;;;;13.03;11.17;;;;;;;17.32;70.39;95137.84;5036991;28;20447;-80
2021/09/16 02:33:36;;;;;;;12.13;10.77;;;;;;;17.33;69.75;95131.56;5036897;28;20473;-80
2021/09/16 02:36:04;;;;;;;10.67;9.57;;;;;;;17.32;69.81;95137.84;5036556;28;20436;-80
2021/09/16 02:38:31;;;;;;;10.20;9.20;;;;;;;17.31;69.97;95138.03;5036559;28;20447;-80
2021/09/16 02:40:58;;;;;;;11.60;10.00;;;;;;;17.30;69.70;95139.03;5037026;28;20441;-80
2021/09/16 02:43:25;;;;;;;14.47;10.70;;;;;;;17.28;69.95;95139.19;5036496;28;20948;-80
2021/09/16 02:45:52;;;;;;;15.77;10.67;;;;;;;17.27;70.26;95148.13;5036316;28;20455;-80
2021/09/16 02:48:19;;;;;;;18.23;8.70;;;;;;;17.24;69.91;95152.94;5036347;28;20902;-80
2021/09/16 02:50:47;;;;;;;11.53;10.17;;;;;;;17.22;70.24;95158.41;5036331;28;20454;-80
2021/09/16 02:53:15;;;;;;;10.97;9.40;;;;;;;17.16;70.27;95156.44;5036583;28;20525;-80
2021/09/16 02:55:41;;;;;;;12.20;9.60;;;;;;;17.13;70.63;95161.22;5017888;28;20452;-80
2021/09/16 02:58:08;;;;;;;11.63;10.43;;;;;;;17.09;70.63;95155.44;5036387;28;20452;-80
2021/09/16 03:00:37;;;;;;;11.70;10.30;;;;;;;17.01;70.68;95155.41;5036151;28;20448;-80
2021/09/16 03:03:05;;;;;;;13.30;11.30;;;;;;;16.96;71.03;95160.38;5001527;28;20450;-80
2021/09/16 03:05:32;;;;;;;14.13;12.00;;;;;;;16.76;71.46;95164.28;5036398;28;20828;-80
2021/09/16 03:08:00;;;;;;;12.13;10.87;;;;;;;16.64;72.71;95158.41;5036305;28;20456;-80
2021/09/16 03:10:27;;;;;;;16.43;10.77;;;;;;;16.49;73.66;95163.50;5036656;28;20766;-80
2021/09/16 03:12:56;;;;;;;20.10;11.93;;;;;;;16.37;74.36;95148.88;5035883;28;20438;-81
2021/09/16 03:15:23;;;;;;;12.67;11.40;;;;;;;16.34;74.06;95155.31;5036111;28;20823;-79
2021/09/16 03:17:50;;;;;;;16.83;12.33;;;;;;;16.31;73.89;95155.63;5036384;28;20463;-78
2021/09/16 03:20:17;;;;;;;13.87;12.40;;;;;;;16.32;74.23;95164.41;5035739;28;20449;-79
2021/09/16 03:22:44;;;;;;;14.20;11.17;;;;;;;16.33;74.40;95156.31;5035822;28;20455;-79
2021/09/16 03:25:13;;;;;;;16.10;10.37;;;;;;;16.31;74.13;95154.81;5001108;28;20452;-78
2021/09/16 03:27:40;;;;;;;13.30;11.47;;;;;;;16.22;73.53;95150.47;5035387;28;20455;-78
2021/09/16 03:30:11;;;;;;;11.50;10.30;;;;;;;16.25;74.69;95145.69;5036870;28;20446;-77
2021/09/16 03:32:38;;;;;;;14.50;11.70;;;;;;;16.33;73.89;95150.19;5017673;28;20460;-77
2021/09/16 03:35:06;;;;;;;14.00;10.80;;;;;;;16.41;73.25;95151.03;5035451;28;20484;-77
2021/09/16 03:37:33;;;;;;;11.70;10.37;;;;;;;16.41;72.60;95158.16;5036025;28;20463;-77
2021/09/16 03:40:02;;;;;;;12.70;11.40;;;;;;;16.42;72.72;95157.16;5034376;28;20453;-77
2021/09/16 03:42:32;;;;;;;15.03;12.97;;;;;;;16.46;72.58;95150.56;5035816;28;20447;-77
2021/09/16 03:44:59;;;;;;;16.20;12.73;;;;;;;16.23;74.38;95157.44;5035685;28;20504;-77
2021/09/16 03:47:26;;;;;;;19.27;12.20;;;;;;;16.00;75.02;95152.66;5035690;28;20447;-77
2021/09/16 03:49:53;;;;;;;19.60;14.43;;;;;;;16.02;75.67;95153.34;5035364;28;20458;-78
2021/09/16 03:52:20;;;;;;;14.70;12.97;;;;;;;16.07;75.60;95159.00;5035500;28;20454;-78
2021/09/16 03:54:47;;;;;;;17.23;13.50;;;;;;;16.17;75.25;95155.38;5016172;28;20492;-78
2021/09/16 03:57:14;;;;;;;17.67;12.80;;;;;;;16.29;74.91;95162.09;5034914;28;20478;-79
2021/09/16 03:59:42;;;;;;;19.20;14.60;;;;;;;16.36;74.49;95163.09;5034786;28;20446;-82
2021/09/16 04:02:09;;;;;;;14.17;12.67;;;;;;;16.41;74.36;95161.63;5035017;28;20438;-82
2021/09/16 04:04:36;;;;;;;20.83;15.10;;;;;;;16.48;74.00;95161.84;5016599;28;20441;-81
2021/09/16 04:07:03;;;;;;;18.37;14.30;;;;;;;16.48;74.52;95158.34;5035199;28;20458;-82
2021/09/16 04:09:30;;;;;;;21.67;15.20;;;;;;;16.58;74.08;95156.41;5032705;28;20433;-81
2021/09/16 04:11:57;;;;;;;20.67;14.57;;;;;;;16.63;74.08;95159.41;5034763;28;20464;-81
2021/09/16 04:14:24;;;;;;;20.23;14.43;;;;;;;16.64;73.29;95148.66;5034506;28;20485;-81
2021/09/16 04:16:52;;;;;;;23.37;15.37;;;;;;;16.56;74.01;95156.56;5034923;28;20450;-81
2021/09/16 04:19:20;;;;;;;17.33;14.97;;;;;;;16.54;73.24;95153.25;5034716;28;20435;-81
2021/09/16 04:21:47;;;;;;;23.00;13.60;;;;;;;16.46;73.82;95160.31;5034912;28;20435;-82
2021/09/16 04:24:16;;;;;;;18.70;12.90;;;;;;;16.57;73.27;95162.72;5034392;28;20942;-81
2021/09/16 04:26:44;;;;;;;18.27;13.43;;;;;;;16.73;72.59;95165.44;5016223;28;20492;-81
2021/09/16 04:29:12;;;;;;;17.87;14.17;;;;;;;17.12;77.73;95163.06;5034744;28;20940;-79
2021/09/16 04:31:39;;;;;;;20.57;15.23;;;;;;;17.53;73.43;95179.00;5015989;28;20469;-82
2021/09/16 04:34:08;;;;;;;19.77;15.77;;;;;;;17.62;70.09;95183.31;5034201;28;20490;-79
2021/09/16 04:36:35;;;;;;;26.00;15.30;;;;;;;17.53;69.79;95173.69;5013908;28;20451;-78
2021/09/16 04:39:03;;;;;;;27.17;14.30;;;;;;;17.45;69.53;95174.53;5032905;28;20445;-78
2021/09/16 04:41:30;;;;;;;29.60;14.90;;;;;;;17.43;70.48;95183.66;5033237;28;20458;-78
2021/09/16 04:43:58;;;;;;;22.27;15.40;;;;;;;17.43;69.98;95183.66;5032937;28;20536;-78
2021/09/16 04:46:25;;;;;;;21.63;14.93;;;;;;;17.44;71.46;95185.31;5014445;28;20457;-79
2021/09/16 04:48:52;;;;;;;23.70;15.53;;;;;;;17.51;72.85;95191.59;5032795;28;20444;-79
2021/09/16 04:51:20;;;;;;;26.70;15.00;;;;;;;17.56;74.12;95189.28;5032253;28;20446;-79
2021/09/16 04:53:47;;;;;;;21.67;16.00;;;;;;;17.62;73.11;95196.56;5032402;28;20451;-79
2021/09/16 04:56:14;;;;;;;20.90;16.47;;;;;;;17.79;72.65;95195.63;5032326;28;20500;-79
2021/09/16 04:58:41;;;;;;;24.47;15.33;;;;;;;18.00;71.68;95191.63;5032892;28;21176;-79
2021/09/16 05:01:08;;;;;;;18.73;14.13;;;;;;;18.30;70.32;95198.88;5033453;28;20430;-79
2021/09/16 05:03:35;;;;;;;20.27;15.43;;;;;;;18.63;69.46;95190.84;5033814;28;20451;-79
2021/09/16 05:06:02;;;;;;;24.67;16.77;;;;;;;18.94;66.59;95202.34;5015406;28;20448;-79
2021/09/16 05:08:30;;;;;;;26.87;17.33;;;;;;;19.23;68.22;95200.84;5034159;28;20433;-79
2021/09/16 05:10:57;;;;;;;36.30;17.20;;;;;;;19.60;64.61;95192.13;5033430;28;20449;-78
2021/09/16 05:13:24;;;;;;;24.90;15.27;;;;;;;19.98;63.51;95201.84;5034138;28;20452;-78
2021/09/16 05:15:51;;;;;;;26.77;16.07;;;;;;;20.25;63.56;95196.94;5033815;28;21020;-79
2021/09/16 05:18:18;;;;;;;17.50;14.07;;;;;;;20.57;62.12;95203.78;5034202;28;20469;-78
2021/09/16 05:20:45;;;;;;;14.33;12.80;;;;;;;20.90;60.58;95202.38;5034137;28;20442;-78
2021/09/16 05:23:12;;;;;;;16.53;11.50;;;;;;;21.30;60.32;95208.22;5033439;28;20466;-78
2021/09/16 05:25:40;;;;;;;10.30;9.20;;;;;;;21.65;57.29;95202.00;5032461;28;20456;-78
2021/09/16 05:28:07;;;;;;;13.10;9.43;;;;;;;22.03;56.08;95212.47;5032362;28;20443;-78
2021/09/16 05:30:34;;;;;;;16.30;10.13;;;;;;;22.33;54.10;95198.94;5032164;28;20808;-79
2021/09/16 05:33:02;;;;;;;11.57;10.20;;;;;;;22.67;53.51;95204.31;5032376;28;20805;-79
2021/09/16 05:35:29;;;;;;;22.80;10.20;;;;;;;22.99;52.90;95204.72;5032409;28;20491;-78
2021/09/16 05:37:59;;;;;;;12.70;9.57;;;;;;;23.15;51.14;95204.38;5032166;28;20444;-78
2021/09/16 05:40:26;;;;;;;11.00;9.33;;;;;;;23.25;50.99;95209.34;5032017;28;20528;-79
2021/09/16 05:42:54;;;;;;;10.63;9.50;;;;;;;23.37;50.22;95210.41;5032008;28;20453;-79
2021/09/16 05:45:21;;;;;;;18.10;11.90;;;;;;;23.63;50.06;95204.34;5032472;28;20462;-79
2021/09/16 05:47:48;;;;;;;12.53;11.00;;;;;;;23.93;49.65;95212.84;5032117;28;20478;-79
2021/09/16 05:50:15;;;;;;;12.17;11.00;;;;;;;24.21;48.83;95205.44;5032145;28;20447;-79
2021/09/16 05:52:42;;;;;;;17.50;11.57;;;;;;;24.43;49.09;95214.13;5031830;28;20447;-79
2021/09/16 05:55:10;;;;;;;20.10;10.97;;;;;;;24.66;48.43;95211.00;5032127;28;20492;-79
2021/09/16 05:57:37;;;;;;;14.13;10.00;;;;;;;24.94;48.09;95208.06;5032103;28;20485;-79
2021/09/16 06:00:08;;;;;;;12.77;11.50;;;;;;;25.13;46.19;95204.50;5031902;28;20450;-79
2021/09/16 06:02:35;;;;;;;14.27;11.90;;;;;;;25.30;46.43;95202.16;5033227;28;20796;-79
2021/09/16 06:05:02;;;;;;;10.93;9.97;;;;;;;25.40;45.53;95204.38;5036362;28;20459;-79
2021/09/16 06:07:29;;;;;;;12.53;11.30;;;;;;;25.45;45.72;95201.91;5036224;28;20433;-79
2021/09/16 06:09:56;;;;;;;14.70;10.77;;;;;;;25.64;45.32;95211.72;5035778;28;20456;-79
2021/09/16 06:12:26;;;;;;;11.47;10.33;;;;;;;25.84;44.99;95204.38;5035697;28;20938;-79
2021/09/16 06:14:53;;;;;;;13.90;11.83;;;;;;;25.74;44.59;95209.41;5035993;28;20478;-79
2021/09/16 06:17:22;;;;;;;19.20;12.00;;;;;;;25.10;46.31;95212.97;5036003;28;20454;-79
2021/09/16 06:19:49;;;;;;;19.33;11.53;;;;;;;25.05;47.26;95209.28;5000951;28;20456;-79
2021/09/16 06:22:16;;;;;;;12.17;10.87;;;;;;;25.19;47.14;95216.28;5035657;28;20449;-79
2021/09/16 06:24:43;;;;;;;14.07;12.30;;;;;;;25.02;46.96;95211.34;5035680;28;20457;-79
2021/09/16 06:27:10;;;;;;;20.13;12.80;;;;;;;25.18;47.25;95214.63;5035490;28;20447;-79
2021/09/16 06:29:37;;;;;;;24.17;12.27;;;;;;;25.03;47.19;95214.88;5035837;28;20460;-79
2021/09/16 06:32:05;;;;;;;15.93;12.20;;;;;;;24.99;47.29;95213.66;5035360;28;20448;-78
2021/09/16 06:34:33;;;;;;;17.30;12.57;;;;;;;24.81;47.50;95214.25;5035597;28;20448;-79
2021/09/16 06:37:00;;;;;;;14.10;12.60;;;;;;;24.77;48.09;95214.91;5035548;28;20474;-79
2021/09/16 06:39:27;;;;;;;16.57;12.47;;;;;;;24.87;48.11;95218.00;5016673;28;20432;-79
2021/09/16 06:41:54;;;;;;;17.63;12.13;;;;;;;25.18;47.92;95211.94;5035501;28;20960;-79
2021/09/16 06:44:21;;;;;;;15.87;12.20;;;;;;;25.06;47.33;95209.06;5035082;28;20531;-79
2021/09/16 06:46:48;;;;;;;13.53;11.80;;;;;;;24.97;48.34;95208.44;5035160;28;20567;-79
2021/09/16 06:49:15;;;;;;;12.17;10.43;;;;;;;25.07;47.07;95207.22;5035511;28;20928;-79
2021/09/16 06:51:43;;;;;;;11.60;10.40;;;;;;;25.10;47.18;95210.28;5035003;28;20445;-79
2021/09/16 06:54:10;;;;;;;15.27;10.00;;;;;;;25.39;46.03;95217.00;5035161;28;20454;-79
2021/09/16 06:56:37;;;;;;;13.97;11.23;;;;;;;25.49;46.40;95205.81;5034901;28;20502;-79
2021/09/16 06:59:04;;;;;;;12.77;10.47;;;;;;;25.01;48.39;95200.81;5035392;28;20446;-79
2021/09/16 07:01:32;;;;;;;13.30;12.00;;;;;;;24.74;47.79;95207.28;5016617;28;20460;-79
2021/09/16 07:03:59;;;;;;;13.70;11.43;;;;;;;25.00;49.02;95201.88;5034721;28;20932;-79
2021/09/16 07:06:27;;;;;;;20.33;11.50;;;;;;;25.37;47.92;95199.44;5035036;28;20452;-79
2021/09/16 07:08:56;;;;;;;18.37;12.20;;;;;;;25.09;47.09;95199.75;5034619;28;20448;-79
2021/09/16 07:11:23;;;;;;;15.47;10.77;;;;;;;25.16;46.52;95198.72;5016260;28;20925;-79
2021/09/16 07:13:50;;;;;;;19.73;10.30;;;;;;;25.14;46.45;95203.44;5034368;28;20446;-79
2021/09/16 07:16:17;;;;;;;16.03;11.90;;;;;;;25.15;45.54;95199.72;5034377;28;20486;-79
2021/09/16 07:18:44;;;;;;;13.43;10.90;;;;;;;25.29;46.39;95204.03;5034338;28;20453;-79
2021/09/16 07:21:11;;;;;;;19.57;11.57;;;;;;;25.49;45.78;95203.13;5034561;28;20445;-79
2021/09/16 07:23:38;;;;;;;15.20;11.47;;;;;;;25.54;45.15;95201.44;5015900;28;20452;-79
2021/09/16 07:26:06;;;;;;;12.00;10.80;;;;;;;25.73;46.43;95204.22;5034315;28;20453;-79
2021/09/16 07:28:35;;;;;;;16.33;12.10;;;;;;;25.40;45.80;95199.00;5034433;28;20450;-79
2021/09/16 07:31:03;;;;;;;15.47;11.57;;;;;;;24.95;46.41;95193.59;5034603;28;20458;-79
2021/09/16 07:33:29;;;;;;;12.43;10.60;;;;;;;25.14;47.13;95190.03;5034617;28;20471;-79
2021/09/16 07:35:57;;;;;;;14.87;11.23;;;;;;;25.11;46.17;95195.81;5034300;28;20579;-79
2021/09/16 07:38:24;;;;;;;13.30;9.97;;;;;;;25.26;46.21;95199.09;5015930;28;20449;-79
2021/09/16 07:40:51;;;;;;;15.83;10.90;;;;;;;25.35;45.01;95194.28;5034289;28;20574;-79
2021/09/16 07:43:20;;;;;;;11.03;10.00;;;;;;;25.42;44.91;95199.63;5034256;28;20456;-79
2021/09/16 07:45:47;;;;;;;11.00;9.30;;;;;;;25.45;43.43;95196.53;5034257;28;20459;-79
2021/09/16 07:48:14;;;;;;;10.60;9.50;;;;;;;25.60;44.28;95199.75;5034356;28;20450;-79
2021/09/16 07:50:41;;;;;;;12.87;10.10;;;;;;;25.82;44.79;95198.41;5034301;28;20879;-79
2021/09/16 07:53:10;;;;;;;9.70;8.80;;;;;;;25.94;43.23;95187.75;4998836;28;20999;-78
2021/09/16 07:55:37;;;;;;;13.13;10.03;;;;;;;26.06;43.55;95182.53;5033793;28;20521;-79
2021/09/16 07:58:04;;;;;;;18.50;9.70;;;;;;;26.02;43.32;95182.13;5033805;28;20458;-79
2021/09/16 08:00:32;;;;;;;12.00;10.30;;;;;;;25.88;44.62;95185.94;5033802;28;20451;-79
2021/09/16 08:02:59;;;;;;;12.07;10.07;;;;;;;25.94;44.20;95190.44;5034083;28;20489;-79
2021/09/16 08:05:26;;;;;;;10.70;9.70;;;;;;;26.23;44.29;95199.75;5033857;28;20447;-79
2021/09/16 08:07:53;;;;;;;11.80;10.70;;;;;;;26.54;43.72;95199.72;5015385;28;20447;-79
2021/09/16 08:10:20;;;;;;;13.70;10.47;;;;;;;26.55;43.39;95195.97;5033727;28;20479;-79
2021/09/16 08:12:47;;;;;;;11.97;9.73;;;;;;;26.51;42.40;95202.03;5033540;28;20938;-79
2021/09/16 08:15:14;;;;;;;19.60;11.00;;;;;;;26.59;42.40;95187.44;4998567;28;20476;-79
2021/09/16 08:17:42;;;;;;;11.33;10.17;;;;;;;26.73;42.24;95188.97;5033261;28;20461;-79
2021/09/16 08:20:11;;;;;;;16.33;10.30;;;;;;;26.82;41.75;95190.31;5033574;28;20956;-79
2021/09/16 08:22:38;;;;;;;11.93;10.63;;;;;;;26.86;40.82;95195.03;5033349;28;20447;-79
2021/09/16 08:25:06;;;;;;;17.73;11.27;;;;;;;27.05;41.22;95187.00;5032879;28;20454;-79
2021/09/16 08:27:35;;;;;;;11.30;10.13;;;;;;;27.08;40.36;95190.06;4998702;28;20446;-78
2021/09/16 08:30:02;;;;;;;12.60;10.10;;;;;;;26.98;41.09;95178.97;5033466;28;20439;-79
2021/09/16 08:32:29;;;;;;;16.83;10.50;;;;;;;27.08;41.65;95186.56;5033532;28;20449;-79
2021/09/16 08:34:57;;;;;;;17.70;11.47;;;;;;;27.25;41.27;95178.69;5033454;28;20676;-79
2021/09/16 08:37:24;;;;;;;11.93;9.87;;;;;;;27.44;40.79;95183.00;5014467;28;20474;-79
2021/09/16 08:39:51;;;;;;;18.50;10.67;;;;;;;27.37;39.13;95179.56;5033439;28;20451;-79
2021/09/16 08:42:18;;;;;;;13.90;10.00;;;;;;;27.17;41.00;95180.63;5033678;28;20450;-79
2021/09/16 08:44:45;;;;;;;17.10;11.10;;;;;;;27.16;40.18;95168.19;5034845;28;20541;-79
2021/09/16 08:47:14;;;;;;;15.57;10.63;;;;;;;27.27;40.52;95160.41;5034547;28;20441;-79
2021/09/16 08:49:41;;;;;;;10.50;9.53;;;;;;;26.74;40.34;95169.09;5034092;28;20969;-79
2021/09/16 08:52:11;;;;;;;13.13;10.10;;;;;;;26.94;42.06;95169.69;5033177;28;20438;-79
2021/09/16 08:54:41;;;;;;;14.63;10.97;;;;;;;26.85;40.93;95169.16;5032957;28;20449;-79
2021/09/16 08:57:15;;;;;;;11.67;10.07;;;;;;;26.90;39.48;95163.13;5032621;28;20490;-79
2021/09/16 08:59:44;;;;;;;13.37;9.20;;;;;;;27.00;39.22;95152.66;5032915;28;20938;-79
2021/09/16 09:02:11;;;;;;;15.27;10.50;;;;;;;27.08;40.66;95149.66;5032745;28;20442;-79
2021/09/16 09:04:38;;;;;;;11.40;9.60;;;;;;;27.24;41.20;95147.41;5032877;28;20452;-79
2021/09/16 09:07:06;;;;;;;12.93;9.50;;;;;;;27.32;41.73;95155.16;4997808;28;20453;-79
2021/09/16 09:09:35;;;;;;;9.70;8.73;;;;;;;27.45;41.96;95152.28;5032764;28;20447;-79
2021/09/16 09:12:04;;;;;;;11.10;10.00;;;;;;;27.52;41.19;95144.94;5032558;28;20441;-79
2021/09/16 09:14:34;;;;;;;10.47;9.53;;;;;;;27.20;41.16;95133.56;4997929;28;20450;-79
2021/09/16 09:17:02;;;;;;;11.67;9.93;;;;;;;27.15;42.00;95145.00;5032768;28;20513;-79
2021/09/16 09:19:32;;;;;;;11.03;9.83;;;;;;;27.23;41.07;95134.97;5032832;28;20541;-79
2021/09/16 09:22:05;;;;;;;15.03;9.73;;;;;;;27.37;42.11;95142.66;5032696;28;20862;-79
2021/09/16 09:24:36;;;;;;;14.00;9.93;;;;;;;27.53;41.03;95146.59;4997518;28;20434;-79
2021/09/16 09:27:29;;;;;;;18.00;9.60;;;;;;;27.73;41.56;95140.94;5032437;28;20446;-79
2021/09/16 09:30:09;;;;;;;18.23;10.90;;;;;;;27.86;41.44;95142.63;4971129;28;20450;-79
2021/09/16 09:32:50;;;;;;;15.00;9.70;;;;;;;27.89;41.93;95144.84;4971250;28;20785;-79
2021/09/16 09:35:37;;;;;;;16.80;10.37;;;;;;;27.89;41.60;95139.44;4971251;28;20452;-79
2021/09/16 09:38:06;;;;;;;14.10;10.30;;;;;;;27.62;40.81;95139.84;4923948;28;20446;-79
2021/09/16 09:40:37;;;;;;;15.47;9.80;;;;;;;27.47;41.62;95134.03;4971339;28;21009;-79
2021/09/16 09:43:24;;;;;;;12.60;11.20;;;;;;;27.48;42.13;95138.38;4971016;28;20445;-79
2021/09/16 09:46:04;;;;;;;16.03;9.93;;;;;;;27.37;41.71;95137.25;4971223;28;20467;-79
2021/09/16 09:48:33;;;;;;;14.73;9.10;;;;;;;27.03;41.46;95133.34;4970997;28;20451;-79
2021/09/16 09:51:00;;;;;;;14.70;9.33;;;;;;;27.23;41.79;95133.13;4971150;28;20969;-79
2021/09/16 09:53:27;;;;;;;11.80;9.20;;;;;;;27.13;41.36;95125.53;4971073;28;20441;-79
2021/09/16 09:55:56;;;;;;;11.10;9.60;;;;;;;27.06;41.74;95132.91;4970769;28;21160;-79
2021/09/16 09:58:31;;;;;;;14.40;9.03;;;;;;;27.25;40.87;95120.22;4970952;28;20807;-79
2021/09/16 10:00:58;;;;;;;11.47;10.40;;;;;;;27.27;41.92;95114.59;4971327;28;20453;-79
2021/09/16 10:03:29;;;;;;;12.73;10.37;;;;;;;27.37;42.58;95121.09;4971038;28;20441;-79
2021/09/16 10:06:09;;;;;;;15.10;10.13;;;;;;;27.39;42.17;95118.16;4987230;28;20936;-79
2021/09/16 10:08:36;;;;;;;13.10;10.77;;;;;;;27.51;43.96;95115.53;5031777;28;20457;-79
2021/09/16 10:11:04;;;;;;;12.10;10.30;;;;;;;27.43;42.08;95113.94;5032024;28;20450;-79
2021/09/16 10:13:33;;;;;;;12.13;9.23;;;;;;;27.57;42.00;95110.03;5031964;28;20452;-79
2021/09/16 10:16:04;;;;;;;11.73;9.80;;;;;;;27.74;41.98;95111.03;5031596;28;20554;-79
2021/09/16 10:18:31;;;;;;;16.07;9.97;;;;;;;27.85;44.27;95116.69;5031961;28;20852;-79
2021/09/16 10:21:00;;;;;;;10.20;9.23;;;;;;;27.85;42.99;95116.69;5031838;28;20449;-78
2021/09/16 10:23:29;;;;;;;11.20;8.37;;;;;;;27.50;40.44;95098.53;5013401;28;20454;-79
2021/09/16 10:25:56;;;;;;;9.17;8.27;;;;;;;27.57;38.75;95096.53;5031968;28;20529;-79
2021/09/16 10:28:37;;;;;;;12.43;9.10;;;;;;;27.50;40.33;95087.75;5031751;28;20454;-79
2021/09/16 10:31:20;;;;;;;11.40;8.70;;;;;;;27.61;39.92;95095.03;5031605;28;20446;-79
2021/09/16 10:33:47;;;;;;;10.27;8.50;;;;;;;27.68;39.90;95092.25;5031865;28;20495;-79
2021/09/16 10:36:14;;;;;;;10.63;9.63;;;;;;;27.67;39.98;95088.75;5031723;28;20486;-79
2021/09/16 10:38:42;;;;;;;11.87;9.30;;;;;;;27.77;39.17;95085.50;5031686;28;20450;-79
2021/09/16 10:41:30;;;;;;;10.40;9.43;;;;;;;27.87;40.69;95082.22;4996604;28;20427;-79
2021/09/16 10:44:22;;;;;;;10.23;9.20;;;;;;;27.84;40.17;95078.13;5031401;28;20451;-79
2021/09/16 10:46:52;;;;;;;10.37;8.50;;;;;;;27.85;40.02;95077.06;5031518;28;20529;-79
2021/09/16 10:49:35;;;;;;;9.10;7.97;;;;;;;27.88;38.67;95073.06;5033652;28;20447;-79
2021/09/16 10:52:18;;;;;;;10.13;8.57;;;;;;;27.66;37.41;95070.09;5035024;28;20450;-79
2021/09/16 10:54:52;;;;;;;12.30;9.20;;;;;;;27.65;39.55;95069.28;5035182;28;20496;-79
2021/09/16 10:57:31;;;;;;;10.17;9.17;;;;;;;27.83;38.84;95060.28;5035122;28;20489;-79
2021/09/16 11:00:15;;;;;;;13.70;9.13;;;;;;;27.89;38.68;95061.22;5035422;28;20525;-79
2021/09/16 11:03:10;;;;;;;18.93;8.90;;;;;;;27.96;38.58;95053.84;5035146;28;20460;-79
2021/09/16 11:05:47;;;;;;;9.80;8.47;;;;;;;28.01;38.79;95053.94;5034917;28;20446;-79
2021/09/16 11:08:17;;;;;;;17.47;7.70;;;;;;;28.10;38.75;95047.16;5034886;28;20445;-79
2021/09/16 11:10:50;;;;;;;20.97;9.57;;;;;;;28.20;35.63;95043.88;5034893;28;20950;-79
2021/09/16 11:13:38;;;;;;;14.20;8.53;;;;;;;28.15;33.64;95032.97;5035354;28;20809;-79
2021/09/16 11:16:07;;;;;;;21.17;8.93;;;;;;;28.28;36.15;95036.25;5034720;28;20442;-79
2021/09/16 11:18:34;;;;;;;11.90;8.60;;;;;;;28.45;35.90;95024.75;5034993;28;20443;-79
2021/09/16 11:21:03;;;;;;;11.90;9.40;;;;;;;28.64;35.47;95028.94;5034474;28;20813;-79
2021/09/16 11:23:40;;;;;;;9.40;7.80;;;;;;;28.82;36.26;95019.81;5034565;28;20452;-79
2021/09/16 11:26:14;;;;;;;15.47;7.67;;;;;;;28.95;34.04;95019.59;5034483;28;20546;-79
2021/09/16 11:28:41;;;;;;;16.03;8.47;;;;;;;29.04;33.82;95017.31;5034584;28;20533;-79